createdAt,value
2018-02-22T00:00:48.240Z,0.00
2018-02-22T00:03:15.742Z,0.00
2018-02-22T00:05:43.192Z,-0.10
2018-02-22T00:08:10.632Z,0.00
2018-02-22T00:10:38.096Z,-0.10
2018-02-22T00:13:05.555Z,0.00
2018-02-22T00:15:33.015Z,-0.10
2018-02-22T00:18:00.460Z,0.00
2018-02-22T00:20:28.702Z,0.00
2018-02-22T00:22:56.171Z,0.00
2018-02-22T00:25:23.618Z,0.00
2018-02-22T00:27:51.076Z,-0.10
2018-02-22T00:30:18.534Z,0.00
2018-02-22T00:32:45.980Z,-0.10
2018-02-22T00:35:13.448Z,-0.10
2018-02-22T00:37:40.903Z,-0.10
2018-02-22T00:40:08.361Z,-0.10
2018-02-22T00:42:35.825Z,-0.10
2018-02-22T00:45:03.275Z,-0.10
2018-02-22T00:47:30.737Z,0.00
2018-02-22T00:49:58.158Z,-0.10
2018-02-22T00:52:26.388Z,-0.10
2018-02-22T00:54:53.843Z,-0.10
2018-02-22T00:57:21.467Z,-0.10
2018-02-22T00:59:48.918Z,0.00
2018-02-22T01:02:17.140Z,-0.10
2018-02-22T01:04:44.588Z,-0.10
2018-02-22T01:07:12.056Z,-0.10
2018-02-22T01:09:39.508Z,-0.10
2018-02-22T01:12:07.747Z,-0.10
2018-02-22T01:14:35.189Z,-0.10
2018-02-22T01:17:04.435Z,-0.10
2018-02-22T01:19:31.882Z,-0.10
2018-02-22T01:21:59.342Z,-0.10
2018-02-22T01:24:26.812Z,-0.10
2018-02-22T01:26:54.267Z,-0.10
2018-02-22T01:29:21.737Z,-0.10
2018-02-22T01:31:49.188Z,-0.10
2018-02-22T01:34:16.653Z,-0.10
2018-02-22T01:36:44.105Z,-0.10
2018-02-22T01:39:11.566Z,-0.10
2018-02-22T01:41:39.013Z,-0.10
2018-02-22T01:44:06.470Z,-0.10
2018-02-22T01:46:33.916Z,-0.10
2018-02-22T01:49:01.378Z,-0.10
2018-02-22T01:51:28.832Z,-0.20
2018-02-22T01:53:56.292Z,-0.20
2018-02-22T01:56:23.745Z,-0.20
2018-02-22T01:58:51.209Z,-0.20
2018-02-22T02:01:18.678Z,-0.20
2018-02-22T02:03:46.146Z,-0.20
2018-02-22T02:06:13.597Z,-0.20
2018-02-22T02:08:41.049Z,-0.20
2018-02-22T02:11:09.268Z,-0.20
2018-02-22T02:13:37.509Z,-0.20
2018-02-22T02:16:04.974Z,-0.20
2018-02-22T02:18:32.428Z,-0.20
2018-02-22T02:20:59.887Z,-0.20
2018-02-22T02:23:27.348Z,-0.20
2018-02-22T02:25:54.808Z,-0.30
2018-02-22T02:28:22.264Z,-0.30
2018-02-22T02:30:49.720Z,-0.20
2018-02-22T02:33:17.168Z,-0.30
2018-02-22T02:35:44.632Z,-0.30
2018-02-22T02:38:12.088Z,-0.30
2018-02-22T02:40:39.552Z,-0.30
2018-02-22T02:43:07.010Z,-0.20
2018-02-22T02:45:34.455Z,-0.30
2018-02-22T02:48:01.906Z,-0.30
2018-02-22T02:50:29.366Z,-0.30
2018-02-22T02:52:56.831Z,-0.30
2018-02-22T02:55:24.288Z,-0.30
2018-02-22T02:57:51.762Z,-0.30
2018-02-22T03:00:19.211Z,-0.20
2018-02-22T03:02:46.668Z,-0.20
2018-02-22T03:05:14.122Z,-0.30
2018-02-22T03:07:41.576Z,-0.30
2018-02-22T03:10:09.021Z,-0.30
2018-02-22T03:12:36.493Z,-0.40
2018-02-22T03:15:03.962Z,-0.30
2018-02-22T03:17:31.417Z,-0.30
2018-02-22T03:19:58.865Z,-0.30
2018-02-22T03:22:26.321Z,-0.30
2018-02-22T03:24:53.782Z,-0.30
2018-02-22T03:27:21.233Z,-0.30
2018-02-22T03:29:48.692Z,-0.40
2018-02-22T03:32:16.156Z,-0.40
2018-02-22T03:34:43.608Z,-0.40
2018-02-22T03:37:11.060Z,-0.50
2018-02-22T03:39:38.511Z,-0.40
2018-02-22T03:42:05.973Z,-0.40
2018-02-22T03:44:33.424Z,-0.40
2018-02-22T03:47:00.881Z,-0.50
2018-02-22T03:49:28.348Z,-0.40
2018-02-22T03:51:55.796Z,-0.40
2018-02-22T03:54:23.261Z,-0.50
2018-02-22T03:56:50.713Z,-0.40
2018-02-22T03:59:18.172Z,-0.50
2018-02-22T04:01:45.633Z,-0.40
2018-02-22T04:04:13.104Z,-0.40
2018-02-22T04:06:40.553Z,-0.40
2018-02-22T04:09:08.018Z,-0.40
2018-02-22T04:11:35.490Z,-0.40
2018-02-22T04:14:02.939Z,-0.40
2018-02-22T04:16:30.385Z,-0.40
2018-02-22T04:18:57.841Z,-0.50
2018-02-22T04:21:25.292Z,-0.50
2018-02-22T04:23:52.754Z,-0.50
2018-02-22T04:26:20.207Z,-0.50
2018-02-22T04:28:47.672Z,-0.50
2018-02-22T04:31:15.122Z,-0.50
2018-02-22T04:33:42.610Z,-0.50
2018-02-22T04:36:10.050Z,-0.50
2018-02-22T04:38:37.504Z,-0.50
2018-02-22T04:41:04.974Z,-0.50
2018-02-22T04:43:32.422Z,-0.50
2018-02-22T04:45:59.878Z,-0.60
2018-02-22T04:48:27.316Z,-0.60
2018-02-22T04:50:54.778Z,-0.60
2018-02-22T04:53:22.230Z,-0.60
2018-02-22T04:55:49.701Z,-0.50
2018-02-22T04:58:17.146Z,-0.60
2018-02-22T05:00:44.613Z,-0.60
2018-02-22T05:03:12.061Z,-0.60
2018-02-22T05:05:39.516Z,-0.60
2018-02-22T05:08:07.054Z,-0.60
2018-02-22T05:10:34.514Z,-0.60
2018-02-22T05:13:02.058Z,-0.70
2018-02-22T05:15:29.527Z,-0.70
2018-02-22T05:17:56.984Z,-0.70
2018-02-22T05:20:24.551Z,-0.70
2018-02-22T05:22:52.077Z,-0.70
2018-02-22T05:25:20.300Z,-0.70
2018-02-22T05:27:47.829Z,-0.70
2018-02-22T05:30:15.273Z,-0.70
2018-02-22T05:32:42.862Z,-0.70
2018-02-22T05:35:10.314Z,-0.70
2018-02-22T05:37:37.776Z,-0.70
2018-02-22T05:40:05.234Z,-0.70
2018-02-22T05:42:32.738Z,-0.70
2018-02-22T05:45:00.205Z,-0.70
2018-02-22T05:47:28.502Z,-0.70
2018-02-22T05:49:55.950Z,-0.70
2018-02-22T05:52:24.182Z,-0.70
2018-02-22T05:54:51.635Z,-0.70
2018-02-22T05:57:19.094Z,-0.60
2018-02-22T05:59:46.540Z,-0.70
2018-02-22T06:02:14.058Z,-0.70
2018-02-22T06:04:42.345Z,-0.60
2018-02-22T06:07:09.942Z,-0.70
2018-02-22T06:09:37.464Z,-0.60
2018-02-22T06:12:04.908Z,-0.60
2018-02-22T06:14:33.383Z,-0.60
2018-02-22T06:17:01.620Z,-0.60
2018-02-22T06:19:29.153Z,-0.60
2018-02-22T06:21:56.604Z,-0.60
2018-02-22T06:24:24.075Z,-0.60
2018-02-22T06:26:51.532Z,-0.60
2018-02-22T06:29:19.009Z,-0.60
2018-02-22T06:31:46.461Z,-0.60
2018-02-22T06:34:13.914Z,-0.60
2018-02-22T06:36:41.449Z,-0.70
2018-02-22T06:39:08.921Z,-0.70
2018-02-22T06:41:36.373Z,-0.70
2018-02-22T06:44:03.834Z,-0.60
2018-02-22T06:46:31.268Z,-0.60
2018-02-22T06:48:58.723Z,-0.60
2018-02-22T06:51:26.930Z,-0.60
2018-02-22T06:53:54.383Z,-0.60
2018-02-22T06:56:21.839Z,-0.60
2018-02-22T06:58:49.296Z,-0.60
2018-02-22T07:01:16.777Z,-0.50
2018-02-22T07:03:45.000Z,-0.50
2018-02-22T07:06:13.222Z,-0.50
2018-02-22T07:08:40.732Z,-0.50
2018-02-22T07:11:08.956Z,-0.40
2018-02-22T07:13:36.411Z,-0.50
2018-02-22T07:16:03.869Z,-0.40
2018-02-22T07:18:31.329Z,-0.40
2018-02-22T07:20:58.783Z,-0.30
2018-02-22T07:23:26.293Z,-0.30
2018-02-22T07:25:53.759Z,-0.30
2018-02-22T07:28:21.983Z,-0.20
2018-02-22T07:30:49.426Z,-0.30
2018-02-22T07:33:16.876Z,-0.20
2018-02-22T07:35:44.325Z,-0.10
2018-02-22T07:38:11.870Z,-0.10
2018-02-22T07:40:39.320Z,-0.10
2018-02-22T07:43:06.774Z,0.00
2018-02-22T07:45:34.985Z,0.10
2018-02-22T07:48:02.438Z,0.10
2018-02-22T07:50:29.902Z,0.20
2018-02-22T07:52:57.347Z,0.30
2018-02-22T07:55:24.809Z,0.30
2018-02-22T07:57:52.318Z,0.30
2018-02-22T08:00:19.764Z,0.40
2018-02-22T08:02:47.265Z,0.40
2018-02-22T08:05:14.724Z,0.50
2018-02-22T08:07:42.160Z,0.50
2018-02-22T08:10:10.385Z,0.70
2018-02-22T08:12:37.822Z,0.70
2018-02-22T08:15:05.282Z,0.80
2018-02-22T08:17:32.731Z,0.80
2018-02-22T08:20:00.290Z,0.90
2018-02-22T08:22:27.739Z,1.00
2018-02-22T08:24:55.185Z,1.10
2018-02-22T08:27:23.402Z,1.30
2018-02-22T08:29:50.856Z,1.30
2018-02-22T08:32:18.307Z,1.40
2018-02-22T08:34:45.764Z,1.60
2018-02-22T08:37:13.209Z,2.00
2018-02-22T08:39:40.648Z,2.80
2018-02-22T08:42:08.922Z,4.20
2018-02-22T08:44:37.141Z,5.40
2018-02-22T08:47:04.589Z,5.40
2018-02-22T08:49:32.034Z,6.10
2018-02-22T08:51:59.503Z,7.00
2018-02-22T08:54:27.675Z,7.50
2018-02-22T08:56:55.194Z,7.50
2018-02-22T08:59:23.394Z,6.60
2018-02-22T09:01:50.834Z,6.60
2018-02-22T09:04:19.057Z,5.90
2018-02-22T09:06:46.494Z,6.00
2018-02-22T09:09:13.927Z,6.10
2018-02-22T09:11:42.153Z,4.80
2018-02-22T09:14:09.608Z,4.80
2018-02-22T09:16:37.057Z,4.20
2018-02-22T09:19:04.497Z,3.60
2018-02-22T09:21:31.957Z,3.30
2018-02-22T09:23:59.437Z,3.20
2018-02-22T09:26:26.885Z,3.00
2018-02-22T09:28:54.326Z,2.90
2018-02-22T09:31:21.846Z,2.90
2018-02-22T09:33:49.294Z,2.80
2018-02-22T09:36:16.737Z,2.70
2018-02-22T09:38:44.180Z,2.60
2018-02-22T09:41:11.637Z,2.90
2018-02-22T09:43:39.085Z,3.40
2018-02-22T09:46:06.542Z,4.40
2018-02-22T09:48:33.984Z,4.80
2018-02-22T09:51:01.423Z,5.90
2018-02-22T09:53:29.628Z,7.00
2018-02-22T09:55:57.081Z,7.00
2018-02-22T09:58:24.516Z,7.00
2018-02-22T10:00:52.013Z,6.90
2018-02-22T10:03:20.156Z,6.90
2018-02-22T10:05:47.605Z,6.90
2018-02-22T10:08:15.041Z,6.10
2018-02-22T10:10:43.268Z,7.40
2018-02-22T10:13:10.698Z,7.40
2018-02-22T10:15:38.146Z,8.40
2018-02-22T10:18:06.346Z,8.50
2018-02-22T10:20:33.789Z,8.50
2018-02-22T10:23:01.223Z,8.80
2018-02-22T10:25:29.429Z,8.60
2018-02-22T10:27:56.860Z,8.60
2018-02-22T10:30:25.067Z,8.70
2018-02-22T10:32:52.590Z,8.70
2018-02-22T10:35:20.799Z,8.80
2018-02-22T10:37:48.232Z,8.70
2018-02-22T10:40:15.677Z,8.80
2018-02-22T10:42:43.889Z,8.90
2018-02-22T10:45:11.325Z,8.80
2018-02-22T10:47:38.759Z,8.50
2018-02-22T10:50:06.997Z,7.40
2018-02-22T10:52:34.399Z,7.40
2018-02-22T10:55:02.611Z,6.90
2018-02-22T10:57:30.040Z,6.90
2018-02-22T10:59:58.253Z,5.80
2018-02-22T11:02:31.392Z,5.80
2018-02-22T11:04:59.612Z,6.00
2018-02-22T11:07:27.061Z,5.90
2018-02-22T11:09:54.502Z,5.60
2018-02-22T11:12:21.927Z,5.80
2018-02-22T11:14:49.370Z,5.90
2018-02-22T11:17:16.808Z,6.20
2018-02-22T11:19:44.969Z,6.10
2018-02-22T11:22:12.422Z,5.50
2018-02-22T11:24:39.868Z,5.00
2018-02-22T11:27:07.310Z,5.00
2018-02-22T11:29:35.514Z,5.20
2018-02-22T11:32:02.948Z,5.20
2018-02-22T11:34:30.522Z,5.30
2018-02-22T11:36:58.004Z,5.20
2018-02-22T11:39:26.209Z,5.70
2018-02-22T11:41:53.640Z,5.70
2018-02-22T11:44:21.118Z,5.50
2018-02-22T11:46:48.553Z,5.50
2018-02-22T11:49:15.992Z,5.50
2018-02-22T11:51:43.436Z,5.30
2018-02-22T11:54:10.868Z,5.00
2018-02-22T11:56:39.080Z,4.90
2018-02-22T11:59:06.517Z,4.90
2018-02-22T12:01:33.946Z,5.00
2018-02-22T12:04:01.377Z,4.90
2018-02-22T12:06:28.824Z,5.00
2018-02-22T12:08:56.279Z,5.00
2018-02-22T12:11:23.717Z,4.90
2018-02-22T12:13:51.152Z,4.60
2018-02-22T12:16:18.587Z,4.70
2018-02-22T12:18:46.013Z,4.80
2018-02-22T12:21:13.465Z,4.90
2018-02-22T12:23:40.953Z,4.50
2018-02-22T12:26:08.414Z,4.40
2018-02-22T12:28:35.867Z,4.60
2018-02-22T12:31:03.545Z,4.70
2018-02-22T12:33:31.748Z,4.60
2018-02-22T12:35:59.197Z,4.60
2018-02-22T12:38:26.639Z,4.60
2018-02-22T12:40:54.869Z,4.40
2018-02-22T12:43:22.320Z,4.30
2018-02-22T12:45:49.792Z,4.20
2018-02-22T12:48:17.231Z,4.10
2018-02-22T12:50:45.441Z,4.20
2018-02-22T12:53:12.880Z,4.20
2018-02-22T12:55:40.324Z,4.20
2018-02-22T12:58:07.773Z,4.10
2018-02-22T13:00:35.225Z,4.10
2018-02-22T13:03:02.683Z,4.10
2018-02-22T13:05:30.289Z,4.20
2018-02-22T13:07:57.756Z,4.10
2018-02-22T13:10:25.980Z,3.90
2018-02-22T13:12:53.548Z,3.90
2018-02-22T13:15:20.976Z,3.90
2018-02-22T13:17:48.411Z,4.00
2018-02-22T13:20:16.635Z,4.20
2018-02-22T13:22:44.070Z,4.10
2018-02-22T13:25:11.522Z,4.30
2018-02-22T13:27:38.976Z,4.30
2018-02-22T13:30:06.400Z,4.30
2018-02-22T13:32:45.743Z,4.20
2018-02-22T13:35:13.948Z,4.10
2018-02-22T13:40:49.028Z,4.10
2018-02-22T13:43:16.464Z,4.00
2018-02-22T13:45:43.926Z,4.10
2018-02-22T13:48:11.344Z,4.10
2018-02-22T13:50:51.270Z,3.90
2018-02-22T13:53:18.701Z,4.00
2018-02-22T13:55:46.165Z,3.90
2018-02-22T13:58:14.593Z,3.90
2018-02-22T14:00:54.835Z,3.90
2018-02-22T14:03:22.268Z,3.90
2018-02-22T14:05:49.711Z,3.80
2018-02-22T14:08:29.084Z,3.90
2018-02-22T14:10:56.549Z,3.80
2018-02-22T14:13:23.980Z,3.80
2018-02-22T14:15:51.436Z,3.80
2018-02-22T14:18:18.876Z,3.80
2018-02-22T14:20:46.336Z,3.80
2018-02-22T14:23:13.767Z,3.80
2018-02-22T14:25:41.214Z,3.80
2018-02-22T14:28:09.420Z,3.80
2018-02-22T14:30:36.855Z,3.80
2018-02-22T14:33:04.290Z,3.90
2018-02-22T14:35:32.499Z,4.00
2018-02-22T14:37:59.924Z,4.00
2018-02-22T14:40:30.467Z,4.00
2018-02-22T14:42:57.903Z,4.00
2018-02-22T14:45:25.360Z,4.10
2018-02-22T14:47:53.562Z,4.20
2018-02-22T14:50:21.013Z,4.20
2018-02-22T14:52:48.444Z,4.10
2018-02-22T14:55:15.890Z,4.00
2018-02-22T14:57:43.346Z,4.00
2018-02-22T15:00:10.774Z,3.80
2018-02-22T15:02:38.242Z,3.70
2018-02-22T15:05:05.689Z,3.70
2018-02-22T15:07:33.124Z,3.70
2018-02-22T15:10:00.558Z,3.70
2018-02-22T15:12:28.771Z,3.80
2018-02-22T15:14:56.198Z,3.70
2018-02-22T15:17:23.638Z,3.70
2018-02-22T15:19:51.840Z,3.80
2018-02-22T15:22:19.276Z,3.80
2018-02-22T15:24:47.486Z,3.70
2018-02-22T15:27:14.920Z,3.70
2018-02-22T15:29:43.129Z,3.70
2018-02-22T15:32:10.584Z,3.60
2018-02-22T15:34:38.013Z,3.70
2018-02-22T15:37:05.457Z,3.70
2018-02-22T15:39:33.668Z,3.70
2018-02-22T15:42:01.105Z,3.70
2018-02-22T15:44:28.541Z,3.60
2018-02-22T15:46:56.740Z,3.60
2018-02-22T15:49:24.185Z,3.60
2018-02-22T15:51:52.392Z,3.50
2018-02-22T15:54:19.853Z,3.50
2018-02-22T15:56:47.292Z,3.40
2018-02-22T15:59:14.730Z,3.40
2018-02-22T16:01:42.941Z,3.30
2018-02-22T16:04:10.399Z,3.30
2018-02-22T16:06:37.849Z,3.30
2018-02-22T16:09:05.293Z,3.20
2018-02-22T16:11:32.737Z,3.20
2018-02-22T16:14:00.189Z,3.10
2018-02-22T16:16:28.388Z,3.00
2018-02-22T16:18:55.832Z,3.00
2018-02-22T16:21:23.278Z,2.90
2018-02-22T16:23:51.484Z,2.90
2018-02-22T16:26:18.924Z,2.90
2018-02-22T16:28:46.400Z,2.90
2018-02-22T16:31:13.856Z,3.00
2018-02-22T16:33:41.315Z,3.00
2018-02-22T16:36:08.759Z,3.00
2018-02-22T16:38:36.221Z,2.90
2018-02-22T16:41:03.749Z,2.80
2018-02-22T16:43:32.029Z,2.90
2018-02-22T16:46:00.341Z,2.80
2018-02-22T16:48:27.770Z,2.80
2018-02-22T16:50:55.320Z,2.70
2018-02-22T16:53:23.533Z,2.60
2018-02-22T16:55:51.069Z,2.60
2018-02-22T16:58:18.505Z,2.50
2018-02-22T17:00:46.708Z,2.50
2018-02-22T17:03:14.149Z,2.50
2018-02-22T17:05:41.579Z,2.50
2018-02-22T17:08:09.034Z,2.40
2018-02-22T17:10:36.466Z,2.40
2018-02-22T17:13:03.912Z,2.40
2018-02-22T17:15:31.345Z,2.30
2018-02-22T17:17:58.900Z,2.30
2018-02-22T17:20:26.345Z,2.30
2018-02-22T17:22:54.570Z,2.20
2018-02-22T17:25:21.520Z,2.20
2018-02-22T17:27:54.585Z,2.20
2018-02-22T17:30:27.764Z,2.20
2018-02-22T17:32:55.296Z,2.10
2018-02-22T17:35:44.201Z,2.10
2018-02-22T17:38:14.445Z,2.00
2018-02-22T17:40:47.395Z,2.00
2018-02-22T17:43:14.842Z,2.00
2018-02-22T17:45:42.289Z,1.90
2018-02-22T17:48:10.512Z,1.90
2018-02-22T17:50:37.957Z,1.90
2018-02-22T17:53:05.480Z,1.90
2018-02-22T17:55:33.700Z,1.80
2018-02-22T17:58:01.149Z,1.80
2018-02-22T18:00:28.589Z,1.80
2018-02-22T18:02:56.016Z,1.80
2018-02-22T18:05:24.209Z,1.70
2018-02-22T18:07:51.668Z,1.70
2018-02-22T18:10:19.109Z,1.70
2018-02-22T18:12:47.382Z,1.70
2018-02-22T18:15:15.572Z,1.70
2018-02-22T18:17:43.786Z,1.70
2018-02-22T18:20:11.216Z,1.70
2018-02-22T18:22:38.664Z,1.60
2018-02-22T18:25:06.924Z,1.60
2018-02-22T18:27:35.145Z,1.50
2018-02-22T18:30:02.577Z,1.50
2018-02-22T18:32:30.024Z,1.60
2018-02-22T18:34:58.282Z,1.50
2018-02-22T18:37:31.562Z,1.50
2018-02-22T18:40:04.775Z,1.50
2018-02-22T18:42:32.213Z,1.50
2018-02-22T18:45:05.448Z,1.40
2018-02-22T18:47:32.899Z,1.40
2018-02-22T18:50:01.104Z,1.40
2018-02-22T18:52:28.624Z,1.30
2018-02-22T18:54:56.834Z,1.40
2018-02-22T18:57:24.286Z,1.30
2018-02-22T18:59:51.725Z,1.30
2018-02-22T19:02:19.270Z,1.30
2018-02-22T19:04:47.476Z,1.30
2018-02-22T19:07:14.908Z,1.20
2018-02-22T19:09:43.124Z,1.20
2018-02-22T19:12:10.548Z,1.20
2018-02-22T19:14:38.090Z,1.20
2018-02-22T19:17:06.378Z,1.10
2018-02-22T19:19:34.584Z,1.10
2018-02-22T19:22:02.022Z,1.00
2018-02-22T19:24:29.452Z,1.10
2018-02-22T19:26:57.656Z,1.00
2018-02-22T19:29:25.220Z,1.00
2018-02-22T19:31:52.659Z,1.00
2018-02-22T19:34:20.100Z,1.00
2018-02-22T19:36:48.325Z,1.00
2018-02-22T19:39:15.755Z,1.00
2018-02-22T19:41:43.961Z,1.00
2018-02-22T19:44:11.391Z,1.00
2018-02-22T19:46:38.833Z,1.00
2018-02-22T19:49:06.284Z,1.00
2018-02-22T19:51:34.483Z,1.00
2018-02-22T19:54:01.919Z,0.90
2018-02-22T19:56:30.128Z,0.90
2018-02-22T19:58:57.560Z,0.80
2018-02-22T20:01:25.002Z,0.80
2018-02-22T20:03:53.213Z,0.80
2018-02-22T20:06:20.678Z,0.80
2018-02-22T20:08:48.207Z,0.80
2018-02-22T20:11:16.406Z,0.70
2018-02-22T20:13:43.828Z,0.70
2018-02-22T20:16:12.040Z,0.70
2018-02-22T20:18:39.497Z,0.70
2018-02-22T20:21:06.930Z,0.70
2018-02-22T20:23:35.140Z,0.70
2018-02-22T20:26:02.654Z,0.70
2018-02-22T20:28:30.846Z,0.70
2018-02-22T20:30:58.281Z,0.70
2018-02-22T20:33:26.560Z,0.60
2018-02-22T20:35:54.770Z,0.60
2018-02-22T20:38:22.214Z,0.60
2018-02-22T20:40:49.659Z,0.60
2018-02-22T20:43:17.160Z,0.60
2018-02-22T20:45:45.304Z,0.60
2018-02-22T20:48:13.644Z,0.50
2018-02-22T20:50:41.939Z,0.50
2018-02-22T20:53:12.730Z,0.50
2018-02-22T20:55:40.184Z,0.50
2018-02-22T20:58:07.640Z,0.50
2018-02-22T21:00:35.100Z,0.50
2018-02-22T21:03:02.549Z,0.50
2018-02-22T21:05:29.993Z,0.50
2018-02-22T21:07:57.437Z,0.40
2018-02-22T21:10:24.888Z,0.50
2018-02-22T21:12:52.326Z,0.50
2018-02-22T21:15:20.535Z,0.40
2018-02-22T21:17:47.969Z,0.40
2018-02-22T21:20:15.412Z,0.40
2018-02-22T21:22:42.840Z,0.40
2018-02-22T21:25:10.282Z,0.40
2018-02-22T21:27:37.746Z,0.40
2018-02-22T21:30:05.194Z,0.40
2018-02-22T21:32:32.645Z,0.40
2018-02-22T21:35:00.091Z,0.40
2018-02-22T21:37:27.551Z,0.30
2018-02-22T21:39:54.989Z,0.40
2018-02-22T21:42:26.056Z,0.30
2018-02-22T21:44:53.509Z,0.30
2018-02-22T21:47:21.030Z,0.30
2018-02-22T21:49:48.479Z,0.20
2018-02-22T21:52:16.764Z,0.20
2018-02-22T21:54:44.978Z,0.30
2018-02-22T21:57:12.490Z,0.20
2018-02-22T21:59:40.699Z,0.30
2018-02-22T22:02:08.137Z,0.30
2018-02-22T22:04:36.362Z,0.20
2018-02-22T22:07:03.873Z,0.20
2018-02-22T22:09:31.303Z,0.10
2018-02-22T22:11:58.742Z,0.10
2018-02-22T22:14:26.245Z,0.10
2018-02-22T22:16:54.451Z,0.10
2018-02-22T22:19:21.893Z,0.10
2018-02-22T22:21:49.331Z,0.10
2018-02-22T22:24:17.550Z,0.10
2018-02-22T22:26:45.104Z,0.10
2018-02-22T22:29:12.541Z,0.20
2018-02-22T22:31:39.977Z,0.10
2018-02-22T22:34:08.180Z,0.10
2018-02-22T22:36:35.619Z,0.10
2018-02-22T22:39:03.058Z,0.00
2018-02-22T22:41:31.333Z,0.00
2018-02-22T22:43:59.542Z,0.00
2018-02-22T22:46:26.973Z,0.00
2018-02-22T22:48:55.189Z,-0.10
2018-02-22T22:51:22.644Z,-0.10
2018-02-22T22:53:50.098Z,-0.10
2018-02-22T22:56:17.537Z,0.00
2018-02-22T22:58:44.969Z,0.00
2018-02-22T23:01:13.253Z,-0.10
2018-02-22T23:03:41.466Z,-0.10
2018-02-22T23:06:08.915Z,-0.10
2018-02-22T23:08:36.350Z,-0.10
2018-02-22T23:11:04.571Z,-0.10
2018-02-22T23:13:32.024Z,-0.10
2018-02-22T23:15:59.468Z,-0.10
2018-02-22T23:18:26.982Z,-0.20
2018-02-22T23:20:55.209Z,-0.20
2018-02-22T23:23:22.653Z,-0.20
2018-02-22T23:25:50.180Z,-0.30
2018-02-22T23:28:18.392Z,-0.30
2018-02-22T23:30:45.861Z,-0.30
2018-02-22T23:33:13.381Z,-0.20
2018-02-22T23:35:41.592Z,-0.30
2018-02-22T23:38:09.105Z,-0.30
2018-02-22T23:40:54.011Z,-0.30
2018-02-22T23:43:21.490Z,-0.30
2018-02-22T23:45:48.945Z,-0.40
2018-02-22T23:48:16.390Z,-0.40
2018-02-22T23:50:43.837Z,-0.40
2018-02-22T23:53:11.277Z,-0.40
2018-02-22T23:55:38.721Z,-0.50
2018-02-22T23:58:06.927Z,-0.50
